Carral, Spain
Current Conditions -  °F | °C
As of 1:00 PM on Sunday 21 Dec 2014 (Local Time) from LECO Reporting Station
Moderate Fog Moderate Fog  
Wind Chill: 55°   Ceiling: Unl
Heat Index: 55°   Visibility: 6mi
Dew Point: 55°   Wind: 0mph
Humidity: 100%   Direction: NA
Pressure: 30.53"   Gusts: NA
Location:  43.23°N, 8.36°W
Report Text: LECO 211200Z 00000KT 9999 VCFG NSC 13/13 Q1034 NOSIG
Loading
Personal Weather Stations






























Interactive Weather Map New forecast layout! Learn more

10-Day Weather Forecast

Advertisements
Track Severe Weather on mobile